Time;durP1;ratioP1;P1;durP2;ratioP2;P2;SDS_P1;SDS_P2;PMS_P1;PMS_P2;Temp;Humidity;BMP_temperature;BMP_pressure;BME280_temperature;BME280_humidity;BME280_pressure;Samples;Min_cycle;Max_cycle;Signal;HPM_P1;HPM_P2
2022/05/05 00:00:47;;;;;;;7.93;4.90;;;;;;;2.67;87.26;102001.00;2071720;28;45909;-65
2022/05/05 00:01:49;;;;;;;7.05;5.07;;;;;;;2.64;87.47;102007.94;2071280;28;43922;-65
2022/05/05 00:02:50;;;;;;;9.82;5.00;;;;;;;2.63;87.36;102000.88;2080502;28;39984;-65
2022/05/05 00:03:52;;;;;;;9.57;5.70;;;;;;;2.58;87.89;102011.31;2071332;28;43493;-64
2022/05/05 00:04:54;;;;;;;11.80;6.13;;;;;;;2.55;88.19;102003.31;2071068;28;37864;-65
2022/05/05 00:05:56;;;;;;;11.73;5.13;;;;;;;2.55;87.15;102011.25;2071475;28;20124;-65
2022/05/05 00:06:57;;;;;;;9.48;5.45;;;;;;;2.48;87.09;102004.00;2071058;28;34531;-66
2022/05/05 00:07:59;;;;;;;7.95;5.32;;;;;;;2.45;88.32;102006.53;2071093;28;44824;-65
2022/05/05 00:09:01;;;;;;;9.50;5.10;;;;;;;2.43;88.54;102008.25;2072241;28;31687;-65
2022/05/05 00:14:23;;;;;;;8.82;4.70;;;;;;;2.40;88.43;102006.41;2072397;28;45265;-65
2022/05/05 00:14:24;;;;;;;8.23;5.20;;;;;;;2.27;88.37;102010.44;2071458;28;44023;-65
2022/05/05 00:15:26;;;;;;;;;;;;;;;2.25;87.93;102012.16;2072216;28;40984;-65
2022/05/05 00:16:28;;;;;;;9.07;5.65;;;;;;;2.24;88.93;102005.09;2072797;28;19933;-65
2022/05/05 00:17:32;;;;;;;12.38;5.55;;;;;;;2.25;88.22;102009.53;2079300;28;45431;-64
2022/05/05 00:18:34;;;;;;;11.98;6.50;;;;;;;2.24;88.69;102005.09;2078226;28;44099;-64
2022/05/05 00:19:40;;;;;;;9.60;5.85;;;;;;;2.25;88.90;102009.53;2071659;28;44289;-64
2022/05/05 00:20:42;;;;;;;9.18;6.07;;;;;;;2.26;88.58;102010.41;2080256;28;21212;-64
2022/05/05 00:21:44;;;;;;;10.40;5.35;;;;;;;2.26;89.21;102007.75;2078045;28;45640;-65
2022/05/05 00:22:45;;;;;;;10.45;4.57;;;;;;;2.24;89.16;102002.47;2062865;28;46105;-64
2022/05/05 00:23:47;;;;;;;11.98;5.38;;;;;;;2.22;88.57;102011.19;2071129;28;42511;-65
2022/05/05 00:24:49;;;;;;;10.63;6.13;;;;;;;2.20;88.36;102011.13;2071593;28;44251;-65
2022/05/05 00:25:50;;;;;;;8.07;5.13;;;;;;;2.19;89.58;102004.06;2079501;28;45675;-65
2022/05/05 00:26:53;;;;;;;11.65;5.25;;;;;;;2.17;89.28;102003.16;2070955;28;43974;-65
2022/05/05 00:27:55;;;;;;;8.85;4.82;;;;;;;2.18;88.54;102010.19;2071864;28;29705;-64
2022/05/05 00:28:57;;;;;;;10.18;5.30;;;;;;;2.15;88.51;102004.81;2078736;28;42256;-65
2022/05/05 00:29:58;;;;;;;8.93;5.65;;;;;;;2.11;88.99;102008.22;2071825;28;44030;-65
2022/05/05 00:31:00;;;;;;;9.88;6.80;;;;;;;2.07;89.58;102011.66;2071467;28;45421;-65
2022/05/05 00:32:02;;;;;;;9.10;5.88;;;;;;;2.04;89.85;102009.78;2072048;28;43169;-65
2022/05/05 00:33:04;;;;;;;9.70;6.15;;;;;;;2.06;89.69;101999.28;2078560;28;43996;-65
2022/05/05 00:34:06;;;;;;;13.38;6.18;;;;;;;2.04;89.71;101998.34;2079054;28;41122;-64
2022/05/05 00:35:08;;;;;;;10.95;5.28;;;;;;;2.05;89.35;102002.78;2071469;28;43066;-65
2022/05/05 00:36:09;;;;;;;10.20;6.15;;;;;;;2.02;89.66;101993.00;2071978;28;45631;-65
2022/05/05 00:37:11;;;;;;;13.55;5.47;;;;;;;2.03;89.71;101993.94;2071210;28;44102;-66
2022/05/05 00:38:13;;;;;;;11.18;6.03;;;;;;;2.01;90.02;101996.53;2071934;28;46424;-65
2022/05/05 00:39:14;;;;;;;10.85;6.10;;;;;;;1.99;90.36;101997.31;2071519;28;43195;-64
2022/05/05 00:40:16;;;;;;;6.45;5.00;;;;;;;1.99;89.96;101992.94;2072904;28;20149;-65
2022/05/05 00:41:18;;;;;;;9.15;4.88;;;;;;;1.98;89.73;101995.53;2077955;28;46030;-65
2022/05/05 00:42:20;;;;;;;6.07;5.18;;;;;;;1.95;89.59;101991.03;2078924;28;37732;-64
2022/05/05 00:43:23;;;;;;;11.88;5.95;;;;;;;1.91;89.45;101987.41;2062575;28;43920;-65
2022/05/05 00:44:25;;;;;;;9.45;6.00;;;;;;;1.87;89.87;101988.19;2063737;28;43428;-64
2022/05/05 00:45:29;;;;;;;11.80;6.45;;;;;;;1.87;89.64;101990.81;2064203;28;20086;-64
2022/05/05 00:46:32;;;;;;;7.68;5.68;;;;;;;1.88;89.53;101991.69;2071072;28;44128;-63
2022/05/05 00:47:34;;;;;;;8.43;5.65;;;;;;;1.85;90.34;101984.59;2071480;28;41432;-63
2022/05/05 00:48:36;;;;;;;8.35;5.68;;;;;;;1.87;90.58;101995.22;2072913;28;20618;-63
2022/05/05 00:49:37;;;;;;;9.13;5.80;;;;;;;1.91;91.06;101994.44;2071294;28;44257;-64
2022/05/05 00:50:39;;;;;;;9.57;6.40;;;;;;;1.91;90.44;101994.44;2072133;28;31058;-64
2022/05/05 00:51:43;;;;;;;6.25;4.95;;;;;;;1.91;90.79;101992.69;2063133;28;20089;-64
2022/05/05 00:52:45;;;;;;;9.80;5.97;;;;;;;1.90;90.45;101992.66;2063526;28;43160;-63
2022/05/05 00:53:46;;;;;;;10.25;5.75;;;;;;;1.87;89.57;101985.53;2071548;28;33150;-64
2022/05/05 00:54:48;;;;;;;8.93;5.72;;;;;;;1.86;89.82;101988.13;2079329;28;44593;-63
2022/05/05 00:55:55;;;;;;;9.07;5.57;;;;;;;1.83;90.47;101990.66;2078654;28;44398;-64
2022/05/05 00:56:59;;;;;;;9.50;5.00;;;;;;;1.79;90.14;101989.69;2079141;28;46427;-64
2022/05/05 00:58:03;;;;;;;9.70;6.22;;;;;;;1.76;90.25;101992.25;2076816;28;42340;-64
2022/05/05 00:59:05;;;;;;;13.23;7.43;;;;;;;1.76;90.17;101989.63;2071505;28;45690;-63
2022/05/05 01:00:11;;;;;;;12.60;7.72;;;;;;;1.78;90.32;101994.94;2070837;28;44680;-63
2022/05/05 01:01:18;;;;;;;16.98;9.00;;;;;;;1.84;90.61;101990.72;2071534;28;44723;-64
2022/05/05 01:02:20;;;;;;;14.20;7.50;;;;;;;1.89;92.00;101996.16;2079617;28;31297;-63
2022/05/05 01:03:23;;;;;;;12.75;7.00;;;;;;;1.91;91.36;101995.34;2078313;28;45974;-64
2022/05/05 01:04:25;;;;;;;9.60;7.07;;;;;;;1.89;91.16;101986.47;2070644;28;42732;-63
2022/05/05 01:05:28;;;;;;;11.50;6.45;;;;;;;1.87;91.53;101990.81;2071268;28;46254;-63
2022/05/05 01:06:30;;;;;;;9.07;5.78;;;;;;;1.83;91.28;102007.44;2078626;28;42392;-64
2022/05/05 01:07:38;;;;;;;10.95;6.85;;;;;;;1.79;90.50;102002.88;2078841;28;40889;-64
2022/05/05 01:08:40;;;;;;;15.90;7.47;;;;;;;1.76;90.68;102000.19;2077292;28;44239;-64
2022/05/05 01:09:42;;;;;;;15.18;7.00;;;;;;;1.75;90.49;101994.84;2070748;28;44234;-64
2022/05/05 01:10:43;;;;;;;10.65;7.47;;;;;;;1.76;90.76;102002.81;2071204;28;46256;-64
2022/05/05 01:11:45;;;;;;;11.70;6.43;;;;;;;1.76;91.15;101993.97;2072206;28;28381;-64
2022/05/05 01:12:52;;;;;;;10.25;5.53;;;;;;;1.75;91.77;101995.72;2070693;28;45596;-63
2022/05/05 01:13:54;;;;;;;10.32;5.97;;;;;;;1.74;90.65;102004.47;2071368;28;45595;-64
2022/05/05 01:14:56;;;;;;;13.73;6.93;;;;;;;1.69;91.09;101995.56;2079177;28;42754;-63
2022/05/05 01:15:59;;;;;;;7.97;5.95;;;;;;;1.69;91.12;102001.72;2078622;28;46356;-63
2022/05/05 01:17:02;;;;;;;13.30;6.85;;;;;;;1.66;91.28;101993.69;2078717;28;43080;-62
2022/05/05 01:18:07;;;;;;;7.45;6.25;;;;;;;1.63;90.66;101998.00;2078321;28;38946;-63
2022/05/05 01:19:09;;;;;;;9.63;6.30;;;;;;;1.61;91.24;102007.63;2079057;28;36094;-63
2022/05/05 01:20:16;;;;;;;10.63;5.50;;;;;;;1.56;91.25;102003.94;2070633;28;45381;-63
2022/05/05 01:21:20;;;;;;;10.05;7.10;;;;;;;1.51;91.46;102007.31;2070425;28;46500;-64
2022/05/05 01:22:25;;;;;;;11.27;7.07;;;;;;;1.49;91.57;102001.13;2071899;28;43961;-63
2022/05/05 01:23:27;;;;;;;14.93;7.10;;;;;;;1.48;91.51;102004.59;2071708;28;44276;-63
2022/05/05 01:28:33;;;;;;;5.93;5.28;;;;;;;1.46;91.64;102003.66;2071161;28;45473;-64
2022/05/05 01:29:35;;;;;;;10.75;6.30;;;;;;;1.48;91.50;102006.34;2071368;28;45162;-63
2022/05/05 01:30:39;;;;;;;10.48;7.03;;;;;;;1.45;91.92;102007.13;2071400;28;46370;-63
2022/05/05 01:31:43;;;;;;;10.70;6.63;;;;;;;1.43;91.32;102003.53;2078812;28;42103;-63
2022/05/05 01:32:46;;;;;;;12.27;7.07;;;;;;;1.38;91.67;102007.78;2078042;28;43231;-63
2022/05/05 01:33:48;;;;;;;15.50;8.43;;;;;;;1.38;92.46;102004.25;2070659;28;45627;-64
2022/05/05 01:34:52;;;;;;;9.73;7.13;;;;;;;1.37;92.67;102005.09;2071357;28;43261;-61
2022/05/05 01:35:56;;;;;;;10.38;7.80;;;;;;;1.38;92.26;102007.78;2071228;28;38365;-63
2022/05/05 01:36:58;;;;;;;9.80;6.95;;;;;;;1.37;92.06;102003.34;2078881;28;43443;-63
2022/05/05 01:38:00;;;;;;;10.43;6.70;;;;;;;1.34;92.27;102014.69;2078169;28;43349;-62
2022/05/05 01:39:01;;;;;;;13.13;7.13;;;;;;;1.33;92.00;102012.03;2071289;28;45622;-63
2022/05/05 01:40:04;;;;;;;10.23;7.07;;;;;;;1.33;92.01;102006.75;2061958;28;45211;-63
2022/05/05 01:41:11;;;;;;;10.02;6.68;;;;;;;1.34;92.42;102008.53;2062800;28;46648;-63
2022/05/05 01:42:13;;;;;;;10.20;7.00;;;;;;;1.33;93.05;102012.91;2071164;28;43349;-63
2022/05/05 01:43:23;;;;;;;11.82;7.50;;;;;;;1.35;92.84;102010.34;2078171;28;45581;-63
2022/05/05 01:44:25;;;;;;;9.70;7.22;;;;;;;1.35;92.26;102002.41;2077515;28;46514;-62
2022/05/05 01:45:27;;;;;;;11.75;7.20;;;;;;;1.34;92.72;102009.41;2078679;28;42389;-62
2022/05/05 01:46:28;;;;;;;7.55;6.47;;;;;;;1.34;92.00;102005.88;2078177;28;45456;-63
2022/05/05 01:47:30;;;;;;;14.43;7.63;;;;;;;1.34;92.42;102005.88;2071581;28;43895;-63
2022/05/05 01:48:33;;;;;;;10.68;7.32;;;;;;;1.33;92.57;102005.00;2071212;28;44094;-63
2022/05/05 01:49:34;;;;;;;9.82;6.72;;;;;;;1.32;92.10;102004.94;2078363;28;43889;-63
2022/05/05 01:50:37;;;;;;;10.82;6.53;;;;;;;1.30;92.61;102010.16;2078566;28;39444;-62
2022/05/05 01:51:39;;;;;;;8.93;5.55;;;;;;;1.31;92.08;102009.34;2078119;28;46575;-62
2022/05/05 01:52:40;;;;;;;10.63;6.45;;;;;;;1.27;92.45;102004.78;2077994;28;44006;-63
2022/05/05 01:53:43;;;;;;;8.82;6.22;;;;;;;1.25;92.80;102013.50;2078155;28;45211;-62
2022/05/05 01:54:44;;;;;;;9.82;6.32;;;;;;;1.21;92.55;102009.88;2070251;28;45157;-62
2022/05/05 01:55:46;;;;;;;12.02;7.15;;;;;;;1.20;92.58;102004.53;2071001;28;31592;-62
2022/05/05 01:56:50;;;;;;;11.48;6.90;;;;;;;1.19;93.01;102008.06;2070524;28;44040;-62
2022/05/05 01:57:54;;;;;;;11.70;7.03;;;;;;;1.20;92.94;102005.44;2070281;28;46193;-61
2022/05/05 01:58:55;;;;;;;10.10;6.13;;;;;;;1.20;92.97;102010.72;2078635;28;45964;-62
2022/05/05 02:00:00;;;;;;;10.23;6.63;;;;;;;1.19;92.85;102005.41;2078579;28;45143;-63
2022/05/05 02:01:15;;;;;;;7.68;6.30;;;;;;;1.21;92.85;102003.72;2072470;28;20205;-63
2022/05/05 02:02:17;;;;;;;12.85;6.30;;;;;;;1.20;92.60;102004.53;2070629;28;45727;-63
2022/05/05 02:03:19;;;;;;;11.05;7.75;;;;;;;1.17;92.51;102009.72;2071349;28;36804;-63
2022/05/05 02:04:21;;;;;;;10.50;6.57;;;;;;;1.13;92.66;102009.63;2070763;28;43039;-63
2022/05/05 02:05:22;;;;;;;12.05;8.10;;;;;;;1.12;93.01;102013.09;2071015;28;43999;-63
2022/05/05 02:06:24;;;;;;;14.15;8.00;;;;;;;1.11;92.26;102013.97;2070582;28;43700;-63
2022/05/05 02:07:26;;;;;;;13.65;8.40;;;;;;;1.10;93.07;102011.28;2079076;28;44042;-62
2022/05/05 02:08:28;;;;;;;15.32;7.47;;;;;;;1.10;92.44;102008.63;2078193;28;36611;-63
2022/05/05 02:09:30;;;;;;;13.27;7.13;;;;;;;1.10;92.75;102014.81;2071083;28;45700;-61
2022/05/05 02:10:32;;;;;;;8.48;6.07;;;;;;;1.09;92.85;102015.63;2070608;28;45840;-63
2022/05/05 02:11:37;;;;;;;9.85;7.38;;;;;;;1.07;92.62;102019.97;2072101;28;25401;-62
2022/05/05 02:12:40;;;;;;;9.48;6.82;;;;;;;1.07;92.63;102024.34;2070908;28;44128;-63
2022/05/05 02:13:42;;;;;;;9.15;6.35;;;;;;;1.05;93.06;102021.66;2070926;28;43711;-62
2022/05/05 02:14:43;;;;;;;11.38;7.50;;;;;;;1.03;93.65;102025.09;2070887;28;39528;-62
2022/05/05 02:15:45;;;;;;;11.05;6.38;;;;;;;1.03;92.92;102028.63;2070892;28;45483;-63
2022/05/05 02:16:47;;;;;;;13.77;8.52;;;;;;;1.02;92.82;102028.56;2070762;28;44617;-63
2022/05/05 02:17:49;;;;;;;9.43;6.45;;;;;;;1.01;92.86;102025.03;2077526;28;45587;-62
2022/05/05 02:18:50;;;;;;;12.45;9.02;;;;;;;0.99;93.36;102025.81;2077872;28;45408;-63
2022/05/05 02:19:52;;;;;;;12.57;7.75;;;;;;;0.97;93.10;102027.50;2071831;28;20124;-62
2022/05/05 02:20:54;;;;;;;15.63;8.20;;;;;;;0.95;92.68;102030.09;2069851;28;44213;-63
2022/05/05 02:21:56;;;;;;;7.47;6.50;;;;;;;0.95;93.19;102027.47;2062468;28;44703;-62
2022/05/05 02:22:59;;;;;;;14.13;8.23;;;;;;;0.97;92.96;102025.78;2070631;28;20041;-63
2022/05/05 02:24:00;;;;;;;9.57;7.55;;;;;;;0.96;93.53;102031.91;2078575;28;44003;-63
2022/05/05 02:25:02;;;;;;;9.40;7.28;;;;;;;0.95;93.29;102032.72;2078378;28;38065;-63
2022/05/05 02:26:05;;;;;;;12.98;8.40;;;;;;;0.94;93.11;102033.59;2070257;28;35288;-63
2022/05/05 02:27:08;;;;;;;11.93;8.70;;;;;;;0.98;94.17;102037.22;2070203;28;44650;-62
2022/05/05 02:28:10;;;;;;;12.45;8.35;;;;;;;0.98;93.76;102035.47;2070551;28;43941;-63
2022/05/05 02:29:11;;;;;;;16.95;10.07;;;;;;;1.01;93.67;102038.22;2070579;28;46029;-62
2022/05/05 02:30:14;;;;;;;13.55;8.27;;;;;;;1.04;94.01;102045.34;2070841;28;42354;-63
2022/05/05 02:31:17;;;;;;;13.90;8.82;;;;;;;1.01;93.91;102038.22;2071116;28;40955;-63
2022/05/05 02:32:19;;;;;;;12.38;8.32;;;;;;;1.03;93.72;102039.19;2070752;28;32199;-63
2022/05/05 02:33:21;;;;;;;12.70;8.65;;;;;;;1.00;93.75;102044.34;2078410;28;42125;-63
2022/05/05 02:34:23;;;;;;;16.13;10.80;;;;;;;0.98;93.61;102031.97;2078180;28;44382;-63
2022/05/05 02:35:24;;;;;;;12.60;8.95;;;;;;;0.99;93.80;102039.00;2069973;28;44631;-62
2022/05/05 02:39:08;;;;;;;14.23;9.57;;;;;;;1.10;94.18;102046.44;2070745;28;40524;-62
2022/05/05 02:40:11;;;;;;;13.23;8.73;;;;;;;1.10;93.82;102041.19;2078282;28;43537;-63
2022/05/05 02:41:13;;;;;;;13.18;9.23;;;;;;;1.14;94.32;102043.06;2069649;28;45724;-62
2022/05/05 02:42:17;;;;;;;14.10;9.52;;;;;;;1.12;94.54;102047.38;2070301;28;45324;-61
2022/05/05 02:43:18;;;;;;;13.32;10.38;;;;;;;1.11;94.10;102045.63;2078466;28;46199;-62
2022/05/05 02:44:20;;;;;;;14.65;10.90;;;;;;;1.15;94.61;102041.34;2077571;28;42088;-62
2022/05/05 02:45:23;;;;;;;14.27;9.07;;;;;;;1.14;94.91;102048.34;2070541;28;45599;-63
2022/05/05 02:46:25;;;;;;;12.32;9.20;;;;;;;1.13;94.53;102045.63;2070672;28;45847;-62
2022/05/05 02:47:26;;;;;;;16.60;10.50;;;;;;;1.11;94.04;102048.25;2071151;28;44178;-62
2022/05/05 02:48:28;;;;;;;11.68;9.43;;;;;;;1.10;94.70;102041.19;2070621;28;43996;-63
2022/05/05 02:49:29;;;;;;;10.93;8.35;;;;;;;1.08;94.30;102044.63;2071432;28;23019;-63
2022/05/05 02:50:32;;;;;;;12.80;9.20;;;;;;;1.06;93.89;102041.94;2070696;28;44161;-62
2022/05/05 02:51:36;;;;;;;12.80;9.93;;;;;;;1.04;93.55;102040.06;2070433;28;46205;-63
2022/05/05 02:52:38;;;;;;;14.73;9.38;;;;;;;1.02;94.55;102049.66;2070526;28;23086;-62
2022/05/05 02:55:01;;;;;;;15.30;10.05;;;;;;;0.94;93.88;102049.41;2070804;28;42570;-63
2022/05/05 02:56:03;;;;;;;18.42;11.25;;;;;;;0.93;94.26;102039.69;2070997;28;45473;-62
2022/05/05 02:57:05;;;;;;;11.82;8.55;;;;;;;0.91;93.99;102044.03;2069820;28;44213;-63
2022/05/05 02:58:07;;;;;;;11.50;8.88;;;;;;;0.90;94.53;102051.03;2070837;28;43332;-63
2022/05/05 02:59:09;;;;;;;14.07;9.48;;;;;;;0.92;93.75;102053.75;2069739;28;43939;-62
2022/05/05 03:00:12;;;;;;;11.98;9.63;;;;;;;0.90;94.62;102051.03;2070406;28;43425;-62
2022/05/05 03:01:13;;;;;;;18.58;11.77;;;;;;;0.90;94.38;102048.41;2078182;28;45909;-63
2022/05/05 03:02:16;;;;;;;14.07;9.38;;;;;;;0.92;94.08;102046.72;2077809;28;37001;-63
2022/05/05 03:03:18;;;;;;;11.90;10.18;;;;;;;0.90;94.27;102047.53;2070098;28;41998;-62
2022/05/05 03:04:20;;;;;;;14.73;11.13;;;;;;;0.87;94.11;102052.69;2070258;28;43546;-63
2022/05/05 03:05:21;;;;;;;17.38;12.02;;;;;;;0.85;93.64;102047.34;2071587;28;36421;-63
2022/05/05 03:06:23;;;;;;;12.48;10.93;;;;;;;0.83;94.66;102045.53;2071910;28;44368;-63
2022/05/05 03:07:25;;;;;;;15.25;10.30;;;;;;;0.82;94.89;102043.72;2070174;28;45376;-63
2022/05/05 03:08:26;;;;;;;14.20;10.70;;;;;;;0.83;94.77;102041.13;2072108;28;33855;-63
2022/05/05 03:09:28;;;;;;;16.75;10.50;;;;;;;0.83;94.95;102048.16;2071694;28;44538;-63
2022/05/05 03:10:30;;;;;;;16.15;12.15;;;;;;;0.81;94.94;102042.81;2073081;28;20168;-62
2022/05/05 03:11:33;;;;;;;18.52;11.73;;;;;;;0.83;94.47;102048.16;2072056;28;45327;-63
2022/05/05 03:12:35;;;;;;;17.50;11.73;;;;;;;0.81;94.71;102037.56;2071764;28;47044;-63
2022/05/05 03:13:36;;;;;;;14.48;10.80;;;;;;;0.84;94.81;102044.66;2072103;28;42345;-63
2022/05/05 03:14:38;;;;;;;17.60;11.95;;;;;;;0.83;94.77;102042.88;2072645;28;20046;-63
2022/05/05 03:15:40;;;;;;;16.48;11.77;;;;;;;0.84;95.07;102042.03;2063257;28;44284;-62
2022/05/05 03:16:42;;;;;;;15.63;9.82;;;;;;;0.84;95.55;102042.03;2072036;28;44315;-63
2022/05/05 03:17:44;;;;;;;15.63;11.05;;;;;;;0.83;94.62;102050.78;2079254;28;44434;-63
2022/05/05 03:18:46;;;;;;;17.95;12.02;;;;;;;0.81;95.43;102048.09;2079857;28;39149;-63
2022/05/05 03:19:48;;;;;;;15.90;10.50;;;;;;;0.82;95.92;102051.63;2072213;28;32791;-63
2022/05/05 03:20:49;;;;;;;15.32;10.50;;;;;;;0.80;94.65;102048.94;2072259;28;45331;-63
2022/05/05 03:21:51;;;;;;;15.93;11.32;;;;;;;0.78;95.37;102047.09;2072019;28;41449;-63
2022/05/05 03:22:53;;;;;;;13.55;10.55;;;;;;;0.75;94.98;102047.88;2072549;28;20157;-63
2022/05/05 03:23:54;;;;;;;15.05;11.18;;;;;;;0.73;94.66;102045.16;2072128;28;44238;-63
2022/05/05 03:24:56;;;;;;;18.38;12.10;;;;;;;0.73;95.15;102039.91;2072334;28;45593;-63
2022/05/05 03:25:58;;;;;;;15.25;11.48;;;;;;;0.73;95.34;102047.81;2080585;28;20041;-63
2022/05/05 03:27:01;;;;;;;15.02;11.20;;;;;;;0.74;95.24;102048.72;2079721;28;42582;-63
2022/05/05 03:28:03;;;;;;;15.32;11.23;;;;;;;0.75;95.83;102047.88;2071988;28;41638;-62
2022/05/05 03:29:05;;;;;;;13.93;11.07;;;;;;;0.75;95.74;102054.06;2072545;28;36113;-64
2022/05/05 03:30:07;;;;;;;16.25;10.60;;;;;;;0.79;95.32;102052.44;2079597;28;43768;-62
2022/05/05 03:31:09;;;;;;;16.33;12.10;;;;;;;0.81;95.58;102057.72;2079056;28;46371;-63
2022/05/05 03:32:11;;;;;;;15.48;12.32;;;;;;;0.81;95.95;102058.66;2070776;28;44935;-63
2022/05/05 03:33:13;;;;;;;15.75;11.35;;;;;;;0.82;95.58;102055.16;2071730;28;31702;-63
2022/05/05 03:34:17;;;;;;;16.50;11.13;;;;;;;0.85;96.00;102060.53;2073193;28;20042;-62
2022/05/05 03:35:20;;;;;;;17.58;11.57;;;;;;;0.88;96.24;102059.72;2079942;28;45474;-63
2022/05/05 03:36:23;;;;;;;20.33;12.35;;;;;;;0.89;95.37;102059.78;2078777;28;44922;-63
2022/05/05 03:37:30;;;;;;;16.02;12.10;;;;;;;0.93;95.60;102058.16;2079850;28;35377;-63
2022/05/05 03:38:32;;;;;;;13.32;11.50;;;;;;;0.92;95.69;102062.53;2078964;28;43938;-62
2022/05/05 03:39:34;;;;;;;16.50;10.73;;;;;;;0.95;95.82;102067.94;2079679;28;45152;-62
2022/05/05 03:40:36;;;;;;;17.42;11.55;;;;;;;0.98;95.89;102067.13;2078978;28;42514;-63
2022/05/05 03:41:37;;;;;;;17.48;10.98;;;;;;;0.99;96.00;102068.94;2072033;28;20043;-63
2022/05/05 03:42:39;;;;;;;15.27;12.23;;;;;;;1.00;95.46;102065.44;2071400;28;42208;-62
2022/05/05 03:43:41;;;;;;;14.35;10.10;;;;;;;1.01;95.36;102063.72;2071895;28;43004;-63
2022/05/05 03:44:42;;;;;;;18.10;12.07;;;;;;;0.99;94.95;102068.94;2071323;28;44773;-62
2022/05/05 03:45:46;;;;;;;17.25;12.32;;;;;;;0.99;95.41;102068.94;2070852;28;41031;-63
2022/05/05 03:46:48;;;;;;;15.90;11.82;;;;;;;0.98;95.17;102064.50;2070890;28;45035;-62
2022/05/05 03:47:50;;;;;;;17.52;11.30;;;;;;;0.99;95.62;102070.66;2071775;28;44066;-63
2022/05/05 03:48:52;;;;;;;16.10;11.07;;;;;;;0.97;94.78;102065.34;2080073;28;20964;-63
2022/05/05 03:49:56;;;;;;;16.58;11.10;;;;;;;0.98;94.86;102072.41;2079133;28;45255;-64
2022/05/05 03:50:58;;;;;;;16.50;12.00;;;;;;;1.01;95.32;102066.34;2079107;28;39080;-63
2022/05/05 03:52:00;;;;;;;18.65;11.95;;;;;;;1.01;95.61;102072.50;2079651;28;43966;-62
2022/05/05 03:53:02;;;;;;;17.05;11.45;;;;;;;1.00;95.53;102065.44;2079529;28;45879;-62
2022/05/05 03:54:04;;;;;;;18.70;12.60;;;;;;;1.02;94.72;102073.41;2070999;28;37386;-62
2022/05/05 03:55:06;;;;;;;16.33;12.50;;;;;;;1.03;95.04;102073.47;2070793;28;44006;-63
2022/05/05 03:56:10;;;;;;;19.00;13.52;;;;;;;1.04;95.06;102069.06;2071872;28;43600;-61
2022/05/05 03:57:11;;;;;;;21.88;13.50;;;;;;;1.07;95.03;102069.19;2071802;28;45542;-63
2022/05/05 03:58:13;;;;;;;16.73;12.40;;;;;;;1.09;95.54;102068.38;2079572;28;44606;-62
2022/05/05 03:59:15;;;;;;;23.15;12.07;;;;;;;1.10;95.51;102078.09;2070527;28;43785;-63
2022/05/05 04:00:19;;;;;;;13.27;11.13;;;;;;;1.10;94.71;102082.47;2071439;28;45348;-62
2022/05/05 04:01:20;;;;;;;13.18;10.50;;;;;;;1.10;94.81;102075.47;2079599;28;43724;-62
2022/05/05 04:02:22;;;;;;;15.32;10.57;;;;;;;1.08;94.54;102073.63;2079831;28;23157;-62
2022/05/05 04:03:33;;;;;;;15.82;10.98;;;;;;;1.11;95.01;102074.63;2078849;28;44557;-62
2022/05/05 04:04:35;;;;;;;17.45;11.68;;;;;;;1.13;95.01;102083.50;2072028;28;41043;-63
2022/05/05 04:05:37;;;;;;;11.82;10.30;;;;;;;1.16;95.23;102082.69;2071859;28;45341;-63
2022/05/05 04:06:38;;;;;;;18.23;11.18;;;;;;;1.20;95.27;102081.03;2071853;28;45275;-62
2022/05/05 04:07:40;;;;;;;17.25;13.02;;;;;;;1.26;95.25;102086.53;2071642;28;43729;-63
2022/05/05 04:08:42;;;;;;;15.88;12.10;;;;;;;1.31;95.29;102092.84;2079614;28;45142;-62
2022/05/05 04:09:43;;;;;;;18.65;12.45;;;;;;;1.37;95.76;102079.88;2070754;28;42130;-63
2022/05/05 04:10:45;;;;;;;12.75;10.60;;;;;;;1.41;94.48;102084.41;2071505;28;43892;-62
2022/05/05 04:11:47;;;;;;;15.45;11.68;;;;;;;1.46;95.40;102092.47;2071575;28;45736;-62
2022/05/05 04:12:48;;;;;;;16.00;10.43;;;;;;;1.50;94.48;102078.53;2072286;28;42986;-63
2022/05/05 04:13:50;;;;;;;12.82;8.60;;;;;;;1.53;94.70;102076.88;2071048;28;46225;-63
2022/05/05 04:14:52;;;;;;;10.98;9.02;;;;;;;1.56;94.74;102076.06;2072977;28;20035;-62
2022/05/05 04:15:54;;;;;;;16.25;10.45;;;;;;;1.59;93.94;102084.09;2071126;28;28360;-62
2022/05/05 04:16:57;;;;;;;13.48;9.80;;;;;;;1.64;93.79;102084.25;2079128;28;44014;-62
2022/05/05 04:18:04;;;;;;;11.48;8.88;;;;;;;1.71;93.21;102084.50;2070763;28;44010;-63
2022/05/05 04:19:08;;;;;;;11.02;8.95;;;;;;;1.84;93.65;102087.53;2071137;28;37917;-62
2022/05/05 04:20:10;;;;;;;15.57;11.10;;;;;;;2.04;93.59;102088.16;2079002;28;42335;-62
2022/05/05 04:21:13;;;;;;;12.05;9.73;;;;;;;2.38;94.02;102082.13;2078742;28;37357;-62
2022/05/05 04:22:18;;;;;;;12.18;10.25;;;;;;;2.78;93.78;102085.91;2063189;28;44282;-63
2022/05/05 04:23:20;;;;;;;13.70;10.00;;;;;;;3.21;93.51;102088.78;2071517;28;42894;-62
2022/05/05 04:24:40;;;;;;;;;;;;;;;3.79;93.70;102084.03;2071351;28;45857;-62
2022/05/05 04:25:44;;;;;;;12.15;8.65;;;;;;;4.23;92.28;102083.25;2078894;28;44505;-61
2022/05/05 04:26:46;;;;;;;11.55;9.20;;;;;;;4.65;91.62;102088.56;2079033;28;42755;-62
2022/05/05 04:27:49;;;;;;;8.98;7.85;;;;;;;5.05;88.24;102083.13;2071630;28;44772;-63
2022/05/05 04:28:51;;;;;;;12.65;7.72;;;;;;;5.43;86.43;102086.44;2079056;28;42369;-62
2022/05/05 04:29:53;;;;;;;9.40;7.30;;;;;;;5.72;84.77;102088.66;2078290;28;44244;-63
2022/05/05 04:30:57;;;;;;;9.63;6.47;;;;;;;5.96;83.43;102082.88;2071325;28;44537;-62
2022/05/05 04:31:59;;;;;;;9.18;5.93;;;;;;;6.27;81.95;102086.84;2079025;28;45422;-62
2022/05/05 04:33:03;;;;;;;6.10;5.40;;;;;;;6.61;81.15;102097.91;2078362;28;44311;-63
2022/05/05 04:34:06;;;;;;;6.38;4.85;;;;;;;6.95;80.33;102086.75;2070925;28;42241;-61
2022/05/05 04:35:08;;;;;;;6.65;4.47;;;;;;;7.34;79.20;102088.00;2071263;28;44394;-62
2022/05/05 04:36:12;;;;;;;6.80;4.65;;;;;;;7.68;77.42;102083.88;2071580;28;44630;-62
2022/05/05 04:37:15;;;;;;;5.90;4.20;;;;;;;7.97;75.72;102092.06;2071361;28;45398;-61
2022/05/05 04:38:16;;;;;;;6.68;4.80;;;;;;;8.18;73.68;102080.63;2072047;28;34391;-62
2022/05/05 04:39:19;;;;;;;6.00;4.40;;;;;;;8.29;72.68;102080.69;2071772;28;42327;-61
2022/05/05 04:40:21;;;;;;;7.50;4.22;;;;;;;8.35;72.06;102078.03;2071437;28;45639;-62
2022/05/05 04:41:27;;;;;;;6.03;3.95;;;;;;;8.34;70.94;102084.25;2071445;28;46082;-62
2022/05/05 04:42:29;;;;;;;7.55;4.53;;;;;;;8.45;70.06;102078.97;2078760;28;41164;-62
2022/05/05 04:43:31;;;;;;;5.20;4.13;;;;;;;8.41;70.15;102080.72;2079015;28;40600;-62
2022/05/05 04:44:32;;;;;;;5.47;4.07;;;;;;;8.28;69.39;102081.56;2071672;28;43724;-62
2022/05/05 04:45:34;;;;;;;6.25;4.43;;;;;;;8.31;69.65;102075.31;2071952;28;45171;-62
2022/05/05 04:46:36;;;;;;;6.65;4.28;;;;;;;8.25;69.47;102083.31;2070649;28;42907;-63
2022/05/05 04:47:38;;;;;;;8.55;4.47;;;;;;;8.16;70.72;102081.50;2070919;28;43814;-62
2022/05/05 04:48:39;;;;;;;6.90;4.53;;;;;;;8.20;70.69;102078.84;2071215;28;34707;-63
2022/05/05 04:49:41;;;;;;;9.07;4.57;;;;;;;8.07;70.09;102085.00;2071256;28;44419;-63
2022/05/05 04:50:43;;;;;;;7.20;4.82;;;;;;;8.07;72.09;102077.00;2071722;28;45112;-63
2022/05/05 04:51:45;;;;;;;4.97;4.28;;;;;;;7.97;71.59;102077.84;2071310;28;36612;-63
2022/05/05 04:52:46;;;;;;;6.63;4.22;;;;;;;7.84;71.89;102079.50;2070796;28;43260;-63
2022/05/05 04:53:50;;;;;;;6.82;4.13;;;;;;;7.75;72.59;102085.69;2071329;28;44612;-61
2022/05/05 04:54:54;;;;;;;7.22;4.63;;;;;;;7.67;72.78;102081.19;2071750;28;45786;-62
2022/05/05 04:55:56;;;;;;;5.85;4.15;;;;;;;7.52;72.66;102085.53;2079132;28;45774;-62
2022/05/05 04:56:58;;;;;;;5.90;4.65;;;;;;;7.38;72.47;102084.50;2078743;28;46389;-63
2022/05/05 04:58:00;;;;;;;5.13;4.20;;;;;;;7.29;73.75;102093.31;2070712;28;42423;-63
2022/05/05 04:59:03;;;;;;;7.55;5.10;;;;;;;7.18;74.06;102077.22;2078825;28;42901;-63
2022/05/05 05:00:08;;;;;;;8.18;5.15;;;;;;;7.11;74.39;102086.03;2078949;28;44381;-62
2022/05/05 05:01:10;;;;;;;7.85;4.70;;;;;;;7.02;74.96;102089.50;2078529;28;44162;-62
2022/05/05 05:02:12;;;;;;;6.55;4.97;;;;;;;6.97;75.31;102093.00;2078550;28;46512;-62
2022/05/05 05:04:33;;;;;;;6.43;5.13;;;;;;;6.91;76.11;102090.25;2071699;28;39602;-62